sensor_id;sensor_type;location;lat;lon;timestamp;temperature;humidity
20839;DHT22;10580;51.092;6.828;2024-01-30T00:01:44;8.70;1.00
20839;DHT22;10580;51.092;6.828;2024-01-30T00:04:09;8.70;1.00
20839;DHT22;10580;51.092;6.828;2024-01-30T00:06:35;8.70;1.00
20839;DHT22;10580;51.092;6.828;2024-01-30T00:09:00;8.60;1.00
20839;DHT22;10580;51.092;6.828;2024-01-30T00:11:26;8.60;1.00
20839;DHT22;10580;51.092;6.828;2024-01-30T00:13:52;8.50;1.00
20839;DHT22;10580;51.092;6.828;2024-01-30T00:16:22;8.50;1.00
20839;DHT22;10580;51.092;6.828;2024-01-30T00:18:48;8.40;1.00
20839;DHT22;10580;51.092;6.828;2024-01-30T00:21:14;8.40;1.00
20839;DHT22;10580;51.092;6.828;2024-01-30T00:23:39;8.40;1.00
20839;DHT22;10580;51.092;6.828;2024-01-30T00:26:05;8.40;56.20
20839;DHT22;10580;51.092;6.828;2024-01-30T00:28:31;8.30;99.90
20839;DHT22;10580;51.092;6.828;2024-01-30T00:30:56;8.30;97.30
20839;DHT22;10580;51.092;6.828;2024-01-30T00:33:22;8.30;99.90
20839;DHT22;10580;51.092;6.828;2024-01-30T00:35:47;8.20;99.90
20839;DHT22;10580;51.092;6.828;2024-01-30T00:38:13;8.20;99.90
20839;DHT22;10580;51.092;6.828;2024-01-30T00:40:38;8.20;1.00
20839;DHT22;10580;51.092;6.828;2024-01-30T00:43:04;8.10;1.00
20839;DHT22;10580;51.092;6.828;2024-01-30T00:45:30;8.10;1.00
20839;DHT22;10580;51.092;6.828;2024-01-30T00:47:55;8.10;28.60
20839;DHT22;10580;51.092;6.828;2024-01-30T00:50:21;8.10;99.90
20839;DHT22;10580;51.092;6.828;2024-01-30T00:52:46;8.10;99.90
20839;DHT22;10580;51.092;6.828;2024-01-30T00:55:12;8.00;99.90
20839;DHT22;10580;51.092;6.828;2024-01-30T00:57:38;8.00;99.90
20839;DHT22;10580;51.092;6.828;2024-01-30T01:00:04;8.00;1.00
20839;DHT22;10580;51.092;6.828;2024-01-30T01:02:31;8.10;1.00
20839;DHT22;10580;51.092;6.828;2024-01-30T01:04:57;8.00;1.00
20839;DHT22;10580;51.092;6.828;2024-01-30T01:07:23;8.00;1.00
20839;DHT22;10580;51.092;6.828;2024-01-30T01:09:48;8.00;1.00
20839;DHT22;10580;51.092;6.828;2024-01-30T01:12:14;8.00;1.00
20839;DHT22;10580;51.092;6.828;2024-01-30T01:14:39;7.90;1.00
20839;DHT22;10580;51.092;6.828;2024-01-30T01:17:05;8.00;1.00
20839;DHT22;10580;51.092;6.828;2024-01-30T01:19:30;7.90;1.00
20839;DHT22;10580;51.092;6.828;2024-01-30T01:21:56;7.90;1.00
20839;DHT22;10580;51.092;6.828;2024-01-30T01:24:21;7.90;1.00
20839;DHT22;10580;51.092;6.828;2024-01-30T01:26:47;7.80;1.00
20839;DHT22;10580;51.092;6.828;2024-01-30T01:29:13;7.90;1.00
20839;DHT22;10580;51.092;6.828;2024-01-30T01:31:38;7.80;1.00
20839;DHT22;10580;51.092;6.828;2024-01-30T01:34:10;7.80;1.00
20839;DHT22;10580;51.092;6.828;2024-01-30T01:36:36;7.80;1.00
20839;DHT22;10580;51.092;6.828;2024-01-30T01:39:02;7.80;1.00
20839;DHT22;10580;51.092;6.828;2024-01-30T01:41:33;7.80;1.00
20839;DHT22;10580;51.092;6.828;2024-01-30T01:43:59;7.80;1.00
20839;DHT22;10580;51.092;6.828;2024-01-30T01:46:30;7.70;1.00
20839;DHT22;10580;51.092;6.828;2024-01-30T01:48:58;7.70;1.00
20839;DHT22;10580;51.092;6.828;2024-01-30T01:51:24;7.70;1.00
20839;DHT22;10580;51.092;6.828;2024-01-30T01:53:52;7.70;1.00
20839;DHT22;10580;51.092;6.828;2024-01-30T01:56:18;7.70;1.00
20839;DHT22;10580;51.092;6.828;2024-01-30T01:58:45;7.70;1.00
20839;DHT22;10580;51.092;6.828;2024-01-30T02:01:13;7.80;1.00
20839;DHT22;10580;51.092;6.828;2024-01-30T02:03:39;7.80;1.00
20839;DHT22;10580;51.092;6.828;2024-01-30T02:06:06;7.80;1.00
20839;DHT22;10580;51.092;6.828;2024-01-30T02:08:32;7.70;1.00
20839;DHT22;10580;51.092;6.828;2024-01-30T02:10:58;7.80;1.00
20839;DHT22;10580;51.092;6.828;2024-01-30T02:13:23;7.70;1.00
20839;DHT22;10580;51.092;6.828;2024-01-30T02:15:52;7.80;1.00
20839;DHT22;10580;51.092;6.828;2024-01-30T02:18:19;7.70;1.00
20839;DHT22;10580;51.092;6.828;2024-01-30T02:20:45;7.70;1.00
20839;DHT22;10580;51.092;6.828;2024-01-30T02:23:12;7.80;1.00
20839;DHT22;10580;51.092;6.828;2024-01-30T02:25:41;7.70;1.00
20839;DHT22;10580;51.092;6.828;2024-01-30T02:28:10;7.80;1.00
20839;DHT22;10580;51.092;6.828;2024-01-30T02:30:37;7.80;1.00
20839;DHT22;10580;51.092;6.828;2024-01-30T02:33:03;7.80;1.00
20839;DHT22;10580;51.092;6.828;2024-01-30T02:35:28;7.80;1.00
20839;DHT22;10580;51.092;6.828;2024-01-30T02:37:54;7.80;1.00
20839;DHT22;10580;51.092;6.828;2024-01-30T02:40:19;7.80;1.00
20839;DHT22;10580;51.092;6.828;2024-01-30T02:42:45;7.80;1.00
20839;DHT22;10580;51.092;6.828;2024-01-30T02:45:11;7.80;1.00
20839;DHT22;10580;51.092;6.828;2024-01-30T02:47:36;7.80;1.00
20839;DHT22;10580;51.092;6.828;2024-01-30T02:50:02;7.80;1.00
20839;DHT22;10580;51.092;6.828;2024-01-30T02:52:28;7.80;1.00
20839;DHT22;10580;51.092;6.828;2024-01-30T02:54:53;7.90;1.00
20839;DHT22;10580;51.092;6.828;2024-01-30T02:57:19;7.90;1.00
20839;DHT22;10580;51.092;6.828;2024-01-30T02:59:44;7.90;1.00
20839;DHT22;10580;51.092;6.828;2024-01-30T03:02:10;7.90;1.00
20839;DHT22;10580;51.092;6.828;2024-01-30T03:04:35;7.90;1.00
20839;DHT22;10580;51.092;6.828;2024-01-30T03:07:01;7.90;1.00
20839;DHT22;10580;51.092;6.828;2024-01-30T03:09:27;7.90;1.00
20839;DHT22;10580;51.092;6.828;2024-01-30T03:11:52;7.90;1.00
20839;DHT22;10580;51.092;6.828;2024-01-30T03:14:18;7.90;1.00
20839;DHT22;10580;51.092;6.828;2024-01-30T03:16:43;7.90;1.00
20839;DHT22;10580;51.092;6.828;2024-01-30T03:19:09;7.90;1.00
20839;DHT22;10580;51.092;6.828;2024-01-30T03:21:35;8.00;1.00
20839;DHT22;10580;51.092;6.828;2024-01-30T03:24:00;8.00;1.00
20839;DHT22;10580;51.092;6.828;2024-01-30T03:26:26;8.10;1.00
20839;DHT22;10580;51.092;6.828;2024-01-30T03:28:52;8.10;1.00
20839;DHT22;10580;51.092;6.828;2024-01-30T03:31:17;8.10;1.00
20839;DHT22;10580;51.092;6.828;2024-01-30T03:33:43;8.10;1.00
20839;DHT22;10580;51.092;6.828;2024-01-30T03:36:09;8.20;1.00
20839;DHT22;10580;51.092;6.828;2024-01-30T03:38:35;8.20;1.00
20839;DHT22;10580;51.092;6.828;2024-01-30T03:41:00;8.30;1.00
20839;DHT22;10580;51.092;6.828;2024-01-30T03:43:26;8.40;1.00
20839;DHT22;10580;51.092;6.828;2024-01-30T03:45:52;8.40;1.00
20839;DHT22;10580;51.092;6.828;2024-01-30T03:48:18;8.40;1.00
20839;DHT22;10580;51.092;6.828;2024-01-30T03:50:44;8.40;1.00
20839;DHT22;10580;51.092;6.828;2024-01-30T03:53:09;8.40;1.00
20839;DHT22;10580;51.092;6.828;2024-01-30T03:55:35;8.30;1.00
20839;DHT22;10580;51.092;6.828;2024-01-30T03:58:01;8.30;1.00
20839;DHT22;10580;51.092;6.828;2024-01-30T04:00:26;8.30;1.00
20839;DHT22;10580;51.092;6.828;2024-01-30T04:02:52;8.20;1.00
20839;DHT22;10580;51.092;6.828;2024-01-30T04:05:17;8.20;1.00
20839;DHT22;10580;51.092;6.828;2024-01-30T04:07:43;8.30;1.00
20839;DHT22;10580;51.092;6.828;2024-01-30T04:10:09;8.30;1.00
20839;DHT22;10580;51.092;6.828;2024-01-30T04:12:35;8.30;1.00
20839;DHT22;10580;51.092;6.828;2024-01-30T04:15:01;8.30;1.00
20839;DHT22;10580;51.092;6.828;2024-01-30T04:17:27;8.30;1.00
20839;DHT22;10580;51.092;6.828;2024-01-30T04:19:54;8.30;1.00
20839;DHT22;10580;51.092;6.828;2024-01-30T04:22:20;8.30;1.00
20839;DHT22;10580;51.092;6.828;2024-01-30T04:24:45;8.30;1.00
20839;DHT22;10580;51.092;6.828;2024-01-30T04:27:11;8.30;1.00
20839;DHT22;10580;51.092;6.828;2024-01-30T04:29:37;8.20;1.00
20839;DHT22;10580;51.092;6.828;2024-01-30T04:32:02;8.20;1.00
20839;DHT22;10580;51.092;6.828;2024-01-30T04:34:28;8.20;1.00
20839;DHT22;10580;51.092;6.828;2024-01-30T04:36:54;8.10;1.00
20839;DHT22;10580;51.092;6.828;2024-01-30T04:39:19;8.10;1.00
20839;DHT22;10580;51.092;6.828;2024-01-30T04:41:45;8.10;1.00
20839;DHT22;10580;51.092;6.828;2024-01-30T04:44:10;8.00;1.00
20839;DHT22;10580;51.092;6.828;2024-01-30T04:46:36;8.10;1.00
20839;DHT22;10580;51.092;6.828;2024-01-30T04:49:02;8.00;1.00
20839;DHT22;10580;51.092;6.828;2024-01-30T04:51:28;8.00;8.60
20839;DHT22;10580;51.092;6.828;2024-01-30T04:53:54;8.00;9.20
20839;DHT22;10580;51.092;6.828;2024-01-30T04:56:19;8.00;17.80
20839;DHT22;10580;51.092;6.828;2024-01-30T04:58:45;7.90;22.30
20839;DHT22;10580;51.092;6.828;2024-01-30T05:01:15;7.90;22.30
20839;DHT22;10580;51.092;6.828;2024-01-30T05:03:41;7.80;34.20
20839;DHT22;10580;51.092;6.828;2024-01-30T05:06:06;7.80;35.30
20839;DHT22;10580;51.092;6.828;2024-01-30T05:08:32;7.70;54.20
20839;DHT22;10580;51.092;6.828;2024-01-30T05:11:00;7.70;86.50
20839;DHT22;10580;51.092;6.828;2024-01-30T05:13:26;7.70;99.90
20839;DHT22;10580;51.092;6.828;2024-01-30T05:15:51;7.70;91.30
20839;DHT22;10580;51.092;6.828;2024-01-30T05:18:17;7.70;99.00
20839;DHT22;10580;51.092;6.828;2024-01-30T05:20:42;7.70;99.90
20839;DHT22;10580;51.092;6.828;2024-01-30T05:23:08;7.70;98.50
20839;DHT22;10580;51.092;6.828;2024-01-30T05:25:33;7.80;99.90
20839;DHT22;10580;51.092;6.828;2024-01-30T05:27:59;7.80;99.90
20839;DHT22;10580;51.092;6.828;2024-01-30T05:30:24;7.80;99.90
20839;DHT22;10580;51.092;6.828;2024-01-30T05:32:50;7.70;99.90
20839;DHT22;10580;51.092;6.828;2024-01-30T05:35:15;7.80;99.90
20839;DHT22;10580;51.092;6.828;2024-01-30T05:37:41;7.80;99.90
20839;DHT22;10580;51.092;6.828;2024-01-30T05:40:07;7.90;80.70
20839;DHT22;10580;51.092;6.828;2024-01-30T05:42:33;8.00;1.00
20839;DHT22;10580;51.092;6.828;2024-01-30T05:44:58;8.00;1.00
20839;DHT22;10580;51.092;6.828;2024-01-30T05:47:24;8.00;1.00
20839;DHT22;10580;51.092;6.828;2024-01-30T05:49:50;8.10;1.00
20839;DHT22;10580;51.092;6.828;2024-01-30T05:52:15;8.00;1.00
20839;DHT22;10580;51.092;6.828;2024-01-30T05:54:41;7.90;1.00
20839;DHT22;10580;51.092;6.828;2024-01-30T05:57:07;7.90;1.00
20839;DHT22;10580;51.092;6.828;2024-01-30T05:59:32;7.90;1.00
20839;DHT22;10580;51.092;6.828;2024-01-30T06:01:58;7.80;1.00
20839;DHT22;10580;51.092;6.828;2024-01-30T06:04:23;7.80;1.00
20839;DHT22;10580;51.092;6.828;2024-01-30T06:06:49;7.80;1.00
20839;DHT22;10580;51.092;6.828;2024-01-30T06:09:14;7.80;1.00
20839;DHT22;10580;51.092;6.828;2024-01-30T06:11:40;7.80;1.00
20839;DHT22;10580;51.092;6.828;2024-01-30T06:14:05;7.70;1.00
20839;DHT22;10580;51.092;6.828;2024-01-30T06:16:31;7.70;1.00
20839;DHT22;10580;51.092;6.828;2024-01-30T06:18:57;7.60;1.00
20839;DHT22;10580;51.092;6.828;2024-01-30T06:21:24;7.60;1.00
20839;DHT22;10580;51.092;6.828;2024-01-30T06:23:50;7.50;1.00
20839;DHT22;10580;51.092;6.828;2024-01-30T06:26:15;7.50;1.00
20839;DHT22;10580;51.092;6.828;2024-01-30T06:28:41;7.50;1.00
20839;DHT22;10580;51.092;6.828;2024-01-30T06:31:06;7.50;16.20
20839;DHT22;10580;51.092;6.828;2024-01-30T06:33:32;7.50;24.00
20839;DHT22;10580;51.092;6.828;2024-01-30T06:35:57;7.50;30.80
20839;DHT22;10580;51.092;6.828;2024-01-30T06:38:23;7.50;14.70
20839;DHT22;10580;51.092;6.828;2024-01-30T06:40:49;7.40;43.80
20839;DHT22;10580;51.092;6.828;2024-01-30T06:43:15;7.40;55.30
20839;DHT22;10580;51.092;6.828;2024-01-30T06:45:40;7.50;69.70
20839;DHT22;10580;51.092;6.828;2024-01-30T06:48:07;7.50;68.40
20839;DHT22;10580;51.092;6.828;2024-01-30T06:50:33;7.40;94.30
20839;DHT22;10580;51.092;6.828;2024-01-30T06:52:58;7.40;99.90
20839;DHT22;10580;51.092;6.828;2024-01-30T06:55:24;7.50;99.90
20839;DHT22;10580;51.092;6.828;2024-01-30T06:57:49;7.50;99.90
20839;DHT22;10580;51.092;6.828;2024-01-30T07:00:16;7.50;99.90
20839;DHT22;10580;51.092;6.828;2024-01-30T07:02:41;7.50;99.90
20839;DHT22;10580;51.092;6.828;2024-01-30T07:05:07;7.60;99.90
20839;DHT22;10580;51.092;6.828;2024-01-30T07:07:33;7.60;99.90
20839;DHT22;10580;51.092;6.828;2024-01-30T07:09:58;7.60;99.90
20839;DHT22;10580;51.092;6.828;2024-01-30T07:12:24;7.60;99.90
20839;DHT22;10580;51.092;6.828;2024-01-30T07:14:51;7.60;99.90
20839;DHT22;10580;51.092;6.828;2024-01-30T07:17:17;7.70;99.90
20839;DHT22;10580;51.092;6.828;2024-01-30T07:19:42;7.70;99.90
20839;DHT22;10580;51.092;6.828;2024-01-30T07:22:08;7.70;99.90
20839;DHT22;10580;51.092;6.828;2024-01-30T07:24:34;7.70;99.90
20839;DHT22;10580;51.092;6.828;2024-01-30T07:26:59;7.70;99.90
20839;DHT22;10580;51.092;6.828;2024-01-30T07:29:25;7.60;96.00
20839;DHT22;10580;51.092;6.828;2024-01-30T07:31:50;7.70;92.40
20839;DHT22;10580;51.092;6.828;2024-01-30T07:34:16;7.70;99.90
20839;DHT22;10580;51.092;6.828;2024-01-30T07:36:42;7.70;99.90
20839;DHT22;10580;51.092;6.828;2024-01-30T07:39:07;7.70;99.90
20839;DHT22;10580;51.092;6.828;2024-01-30T07:41:33;7.80;99.90
20839;DHT22;10580;51.092;6.828;2024-01-30T07:44:00;7.80;99.90
20839;DHT22;10580;51.092;6.828;2024-01-30T07:46:25;7.80;86.80
20839;DHT22;10580;51.092;6.828;2024-01-30T07:48:51;7.80;49.20
20839;DHT22;10580;51.092;6.828;2024-01-30T07:51:16;7.90;15.30
20839;DHT22;10580;51.092;6.828;2024-01-30T07:53:42;7.90;1.00
20839;DHT22;10580;51.092;6.828;2024-01-30T07:56:07;7.90;1.00
20839;DHT22;10580;51.092;6.828;2024-01-30T07:58:33;7.90;1.00
20839;DHT22;10580;51.092;6.828;2024-01-30T08:00:58;8.00;1.00
20839;DHT22;10580;51.092;6.828;2024-01-30T08:03:25;8.00;1.00
20839;DHT22;10580;51.092;6.828;2024-01-30T08:05:51;8.00;1.00
20839;DHT22;10580;51.092;6.828;2024-01-30T08:08:17;8.10;1.00
20839;DHT22;10580;51.092;6.828;2024-01-30T08:10:42;8.10;1.00
20839;DHT22;10580;51.092;6.828;2024-01-30T08:13:08;8.20;1.00
20839;DHT22;10580;51.092;6.828;2024-01-30T08:15:34;8.30;1.00
20839;DHT22;10580;51.092;6.828;2024-01-30T08:18:00;8.30;1.00
20839;DHT22;10580;51.092;6.828;2024-01-30T08:20:25;8.30;1.00
20839;DHT22;10580;51.092;6.828;2024-01-30T08:22:51;8.40;1.00
20839;DHT22;10580;51.092;6.828;2024-01-30T08:25:17;8.40;1.00
20839;DHT22;10580;51.092;6.828;2024-01-30T08:27:43;8.40;1.00
20839;DHT22;10580;51.092;6.828;2024-01-30T08:30:10;8.40;1.00
20839;DHT22;10580;51.092;6.828;2024-01-30T08:32:36;8.40;1.00
20839;DHT22;10580;51.092;6.828;2024-01-30T08:35:01;8.40;1.00
20839;DHT22;10580;51.092;6.828;2024-01-30T08:37:29;8.50;1.00
20839;DHT22;10580;51.092;6.828;2024-01-30T08:39:55;8.50;1.00
20839;DHT22;10580;51.092;6.828;2024-01-30T08:42:20;8.60;1.00
20839;DHT22;10580;51.092;6.828;2024-01-30T08:44:48;8.60;1.00
20839;DHT22;10580;51.092;6.828;2024-01-30T08:47:15;8.70;1.00
20839;DHT22;10580;51.092;6.828;2024-01-30T08:49:42;8.80;1.00
20839;DHT22;10580;51.092;6.828;2024-01-30T08:52:12;8.90;1.00
20839;DHT22;10580;51.092;6.828;2024-01-30T08:54:38;9.00;1.00
20839;DHT22;10580;51.092;6.828;2024-01-30T08:57:04;9.10;1.00
20839;DHT22;10580;51.092;6.828;2024-01-30T08:59:29;9.20;1.00
20839;DHT22;10580;51.092;6.828;2024-01-30T09:01:55;9.30;99.90
20839;DHT22;10580;51.092;6.828;2024-01-30T09:04:23;9.40;99.90
20839;DHT22;10580;51.092;6.828;2024-01-30T09:06:49;9.40;99.90
20839;DHT22;10580;51.092;6.828;2024-01-30T09:09:14;9.50;99.90
20839;DHT22;10580;51.092;6.828;2024-01-30T09:11:40;9.60;99.90
20839;DHT22;10580;51.092;6.828;2024-01-30T09:14:06;9.70;99.90
20839;DHT22;10580;51.092;6.828;2024-01-30T09:16:32;9.80;62.50
20839;DHT22;10580;51.092;6.828;2024-01-30T09:18:57;9.80;1.00
20839;DHT22;10580;51.092;6.828;2024-01-30T09:21:23;9.80;1.00
20839;DHT22;10580;51.092;6.828;2024-01-30T09:23:49;9.80;1.00
20839;DHT22;10580;51.092;6.828;2024-01-30T09:26:14;9.80;1.00
20839;DHT22;10580;51.092;6.828;2024-01-30T09:28:40;9.90;1.00
20839;DHT22;10580;51.092;6.828;2024-01-30T09:31:11;9.90;1.00
20839;DHT22;10580;51.092;6.828;2024-01-30T09:33:37;9.90;1.00
20839;DHT22;10580;51.092;6.828;2024-01-30T09:36:02;10.00;1.00
20839;DHT22;10580;51.092;6.828;2024-01-30T09:38:28;10.00;1.00
20839;DHT22;10580;51.092;6.828;2024-01-30T09:40:54;10.20;1.00
20839;DHT22;10580;51.092;6.828;2024-01-30T09:43:23;10.30;1.00
20839;DHT22;10580;51.092;6.828;2024-01-30T09:45:50;10.30;1.00
20839;DHT22;10580;51.092;6.828;2024-01-30T09:48:16;10.30;1.00
20839;DHT22;10580;51.092;6.828;2024-01-30T09:50:42;10.40;1.00
20839;DHT22;10580;51.092;6.828;2024-01-30T09:53:08;10.50;1.00
20839;DHT22;10580;51.092;6.828;2024-01-30T09:55:36;10.60;1.00
20839;DHT22;10580;51.092;6.828;2024-01-30T09:58:02;10.60;1.00
20839;DHT22;10580;51.092;6.828;2024-01-30T10:00:27;10.70;1.00
20839;DHT22;10580;51.092;6.828;2024-01-30T10:02:53;10.60;1.00
20839;DHT22;10580;51.092;6.828;2024-01-30T10:05:19;10.60;1.00
20839;DHT22;10580;51.092;6.828;2024-01-30T10:07:54;10.70;1.00
20839;DHT22;10580;51.092;6.828;2024-01-30T10:10:22;10.70;1.00
20839;DHT22;10580;51.092;6.828;2024-01-30T10:12:48;10.80;1.00
20839;DHT22;10580;51.092;6.828;2024-01-30T10:15:14;10.90;1.00
20839;DHT22;10580;51.092;6.828;2024-01-30T10:17:40;10.90;1.00
20839;DHT22;10580;51.092;6.828;2024-01-30T10:20:06;11.00;1.00
20839;DHT22;10580;51.092;6.828;2024-01-30T10:22:33;11.20;1.00
20839;DHT22;10580;51.092;6.828;2024-01-30T10:25:00;11.30;1.00
20839;DHT22;10580;51.092;6.828;2024-01-30T10:27:26;11.20;1.00
20839;DHT22;10580;51.092;6.828;2024-01-30T10:29:52;11.30;1.00
20839;DHT22;10580;51.092;6.828;2024-01-30T10:32:19;11.40;1.00
20839;DHT22;10580;51.092;6.828;2024-01-30T10:34:45;11.30;1.00
20839;DHT22;10580;51.092;6.828;2024-01-30T10:37:11;11.30;1.00
20839;DHT22;10580;51.092;6.828;2024-01-30T10:39:44;11.20;1.00
20839;DHT22;10580;51.092;6.828;2024-01-30T10:42:15;11.30;1.00
20839;DHT22;10580;51.092;6.828;2024-01-30T10:45:13;11.30;1.00
20839;DHT22;10580;51.092;6.828;2024-01-30T10:47:47;11.30;1.00
20839;DHT22;10580;51.092;6.828;2024-01-30T10:50:14;11.30;1.00
20839;DHT22;10580;51.092;6.828;2024-01-30T10:52:41;11.20;1.00
20839;DHT22;10580;51.092;6.828;2024-01-30T10:55:08;11.20;1.00
20839;DHT22;10580;51.092;6.828;2024-01-30T10:57:37;11.40;1.00
20839;DHT22;10580;51.092;6.828;2024-01-30T11:00:14;11.40;1.00
20839;DHT22;10580;51.092;6.828;2024-01-30T11:02:45;11.40;1.00
20839;DHT22;10580;51.092;6.828;2024-01-30T11:05:12;11.60;1.00
20839;DHT22;10580;51.092;6.828;2024-01-30T11:07:39;11.70;1.00
20839;DHT22;10580;51.092;6.828;2024-01-30T11:10:05;11.80;1.00
20839;DHT22;10580;51.092;6.828;2024-01-30T11:12:38;11.80;1.00
20839;DHT22;10580;51.092;6.828;2024-01-30T11:15:07;11.80;99.90
20839;DHT22;10580;51.092;6.828;2024-01-30T11:18:03;11.80;1.00
20839;DHT22;10580;51.092;6.828;2024-01-30T11:20:32;11.90;1.00
20839;DHT22;10580;51.092;6.828;2024-01-30T11:22:59;12.10;1.00
20839;DHT22;10580;51.092;6.828;2024-01-30T11:25:25;12.10;99.90
20839;DHT22;10580;51.092;6.828;2024-01-30T11:27:53;12.20;99.90
20839;DHT22;10580;51.092;6.828;2024-01-30T11:30:26;12.30;99.90
20839;DHT22;10580;51.092;6.828;2024-01-30T11:33:09;12.30;99.90
20839;DHT22;10580;51.092;6.828;2024-01-30T11:35:46;12.40;99.90
20839;DHT22;10580;51.092;6.828;2024-01-30T11:38:16;12.60;99.90
20839;DHT22;10580;51.092;6.828;2024-01-30T11:40:41;12.70;99.90
20839;DHT22;10580;51.092;6.828;2024-01-30T11:43:09;12.80;99.90
20839;DHT22;10580;51.092;6.828;2024-01-30T11:45:36;12.90;99.90
20839;DHT22;10580;51.092;6.828;2024-01-30T11:48:02;12.90;99.90
20839;DHT22;10580;51.092;6.828;2024-01-30T11:50:34;12.90;99.90
20839;DHT22;10580;51.092;6.828;2024-01-30T11:53:01;13.00;99.90
20839;DHT22;10580;51.092;6.828;2024-01-30T11:55:28;12.90;99.90
20839;DHT22;10580;51.092;6.828;2024-01-30T11:57:57;12.90;99.90
20839;DHT22;10580;51.092;6.828;2024-01-30T12:00:24;12.80;99.90
20839;DHT22;10580;51.092;6.828;2024-01-30T12:02:51;12.60;99.90
20839;DHT22;10580;51.092;6.828;2024-01-30T12:05:21;12.50;99.90
20839;DHT22;10580;51.092;6.828;2024-01-30T12:07:47;12.40;99.90
20839;DHT22;10580;51.092;6.828;2024-01-30T12:10:13;12.40;99.90
20839;DHT22;10580;51.092;6.828;2024-01-30T12:12:47;12.30;99.90
20839;DHT22;10580;51.092;6.828;2024-01-30T12:15:14;12.20;99.90
20839;DHT22;10580;51.092;6.828;2024-01-30T12:17:40;12.20;99.90
20839;DHT22;10580;51.092;6.828;2024-01-30T12:20:12;12.20;99.90
20839;DHT22;10580;51.092;6.828;2024-01-30T12:22:40;12.30;1.00
20839;DHT22;10580;51.092;6.828;2024-01-30T12:25:14;12.30;1.00
20839;DHT22;10580;51.092;6.828;2024-01-30T12:27:42;12.30;1.00
20839;DHT22;10580;51.092;6.828;2024-01-30T12:30:09;12.40;1.00
20839;DHT22;10580;51.092;6.828;2024-01-30T12:32:36;12.40;1.00
20839;DHT22;10580;51.092;6.828;2024-01-30T12:35:02;12.40;1.00
20839;DHT22;10580;51.092;6.828;2024-01-30T12:37:30;12.30;1.00
20839;DHT22;10580;51.092;6.828;2024-01-30T12:39:56;12.40;1.00
20839;DHT22;10580;51.092;6.828;2024-01-30T12:42:21;12.30;1.00
20839;DHT22;10580;51.092;6.828;2024-01-30T12:44:48;12.30;1.00
20839;DHT22;10580;51.092;6.828;2024-01-30T12:47:14;12.30;1.00
20839;DHT22;10580;51.092;6.828;2024-01-30T12:49:42;12.20;1.00
20839;DHT22;10580;51.092;6.828;2024-01-30T12:52:08;12.20;19.70
20839;DHT22;10580;51.092;6.828;2024-01-30T12:54:34;12.30;43.90
20839;DHT22;10580;51.092;6.828;2024-01-30T12:56:59;12.30;62.90
20839;DHT22;10580;51.092;6.828;2024-01-30T12:59:25;12.40;61.90
20839;DHT22;10580;51.092;6.828;2024-01-30T13:01:50;12.30;63.20
20839;DHT22;10580;51.092;6.828;2024-01-30T13:04:16;12.40;44.10
20839;DHT22;10580;51.092;6.828;2024-01-30T13:06:42;12.30;40.50
20839;DHT22;10580;51.092;6.828;2024-01-30T13:09:07;12.30;68.20
20839;DHT22;10580;51.092;6.828;2024-01-30T13:11:33;12.30;62.00
20839;DHT22;10580;51.092;6.828;2024-01-30T13:13:59;12.30;78.80
20839;DHT22;10580;51.092;6.828;2024-01-30T13:16:25;12.30;99.90
20839;DHT22;10580;51.092;6.828;2024-01-30T13:18:51;12.30;99.90
20839;DHT22;10580;51.092;6.828;2024-01-30T13:21:17;12.30;99.90
20839;DHT22;10580;51.092;6.828;2024-01-30T13:23:42;12.30;99.90
20839;DHT22;10580;51.092;6.828;2024-01-30T13:26:08;12.30;99.90
20839;DHT22;10580;51.092;6.828;2024-01-30T13:28:34;12.20;99.90
20839;DHT22;10580;51.092;6.828;2024-01-30T13:30:59;12.30;99.90
20839;DHT22;10580;51.092;6.828;2024-01-30T13:33:26;12.20;99.90
20839;DHT22;10580;51.092;6.828;2024-01-30T13:35:51;12.20;99.90
20839;DHT22;10580;51.092;6.828;2024-01-30T13:38:17;12.20;99.90
20839;DHT22;10580;51.092;6.828;2024-01-30T13:40:43;12.20;99.90
20839;DHT22;10580;51.092;6.828;2024-01-30T13:43:08;12.20;99.90
20839;DHT22;10580;51.092;6.828;2024-01-30T13:45:34;12.20;99.90
20839;DHT22;10580;51.092;6.828;2024-01-30T13:50:28;12.20;99.90
20839;DHT22;10580;51.092;6.828;2024-01-30T13:52:53;12.20;99.90
20839;DHT22;10580;51.092;6.828;2024-01-30T13:55:19;12.20;99.90
20839;DHT22;10580;51.092;6.828;2024-01-30T13:57:44;12.20;99.90
20839;DHT22;10580;51.092;6.828;2024-01-30T14:00:10;12.20;99.90
20839;DHT22;10580;51.092;6.828;2024-01-30T14:02:36;12.20;99.90
20839;DHT22;10580;51.092;6.828;2024-01-30T14:05:02;12.20;99.90
20839;DHT22;10580;51.092;6.828;2024-01-30T14:07:29;12.20;99.90
20839;DHT22;10580;51.092;6.828;2024-01-30T14:09:55;12.20;99.90
20839;DHT22;10580;51.092;6.828;2024-01-30T14:12:21;12.20;99.90
20839;DHT22;10580;51.092;6.828;2024-01-30T14:14:47;12.30;99.90
20839;DHT22;10580;51.092;6.828;2024-01-30T14:17:12;12.30;99.90
20839;DHT22;10580;51.092;6.828;2024-01-30T14:19:38;12.30;99.90
20839;DHT22;10580;51.092;6.828;2024-01-30T14:22:04;12.30;99.90
20839;DHT22;10580;51.092;6.828;2024-01-30T14:24:29;12.30;99.90
20839;DHT22;10580;51.092;6.828;2024-01-30T14:26:55;12.30;99.90
20839;DHT22;10580;51.092;6.828;2024-01-30T14:29:20;12.30;99.90
20839;DHT22;10580;51.092;6.828;2024-01-30T14:31:46;12.30;99.90
20839;DHT22;10580;51.092;6.828;2024-01-30T14:34:12;12.30;99.90
20839;DHT22;10580;51.092;6.828;2024-01-30T14:36:38;12.20;99.90
20839;DHT22;10580;51.092;6.828;2024-01-30T14:39:03;12.20;99.90
20839;DHT22;10580;51.092;6.828;2024-01-30T14:41:29;12.20;99.90
20839;DHT22;10580;51.092;6.828;2024-01-30T14:43:55;12.10;99.90
20839;DHT22;10580;51.092;6.828;2024-01-30T14:46:21;12.10;99.90
20839;DHT22;10580;51.092;6.828;2024-01-30T14:48:47;12.10;99.90
20839;DHT22;10580;51.092;6.828;2024-01-30T14:51:13;12.10;99.90
20839;DHT22;10580;51.092;6.828;2024-01-30T14:53:39;12.10;99.90
20839;DHT22;10580;51.092;6.828;2024-01-30T14:56:05;12.00;99.90
20839;DHT22;10580;51.092;6.828;2024-01-30T14:58:31;12.00;99.90
20839;DHT22;10580;51.092;6.828;2024-01-30T15:00:57;12.00;99.90
20839;DHT22;10580;51.092;6.828;2024-01-30T15:03:23;12.00;99.90
20839;DHT22;10580;51.092;6.828;2024-01-30T15:05:48;12.00;99.90
20839;DHT22;10580;51.092;6.828;2024-01-30T15:08:14;12.00;99.90
20839;DHT22;10580;51.092;6.828;2024-01-30T15:10:39;11.90;99.90
20839;DHT22;10580;51.092;6.828;2024-01-30T15:13:05;11.90;99.90
20839;DHT22;10580;51.092;6.828;2024-01-30T15:15:31;11.90;99.90
20839;DHT22;10580;51.092;6.828;2024-01-30T15:17:57;11.80;99.90
20839;DHT22;10580;51.092;6.828;2024-01-30T15:20:23;11.80;99.90
20839;DHT22;10580;51.092;6.828;2024-01-30T15:22:49;11.80;99.90
20839;DHT22;10580;51.092;6.828;2024-01-30T15:25:14;11.70;99.90
20839;DHT22;10580;51.092;6.828;2024-01-30T15:27:40;11.70;99.90
20839;DHT22;10580;51.092;6.828;2024-01-30T15:30:06;11.70;99.90
20839;DHT22;10580;51.092;6.828;2024-01-30T15:32:32;11.70;1.00
20839;DHT22;10580;51.092;6.828;2024-01-30T15:34:59;11.70;99.90
20839;DHT22;10580;51.092;6.828;2024-01-30T15:37:28;11.60;99.90
20839;DHT22;10580;51.092;6.828;2024-01-30T15:39:53;11.60;42.10
20839;DHT22;10580;51.092;6.828;2024-01-30T15:42:19;11.50;1.00
20839;DHT22;10580;51.092;6.828;2024-01-30T15:44:45;11.40;1.00
20839;DHT22;10580;51.092;6.828;2024-01-30T15:47:10;11.30;1.00